createdAt,value
2023-05-09T00:03:34.171Z,15.10
2023-05-09T00:08:36.234Z,15.00
2023-05-09T00:13:38.703Z,14.90
2023-05-09T00:18:42.327Z,15.10
2023-05-09T00:23:44.146Z,15.20
2023-05-09T00:28:45.913Z,15.10
2023-05-09T00:33:47.685Z,15.10
2023-05-09T00:38:49.473Z,15.10
2023-05-09T00:43:51.233Z,15.20
2023-05-09T00:48:53.034Z,15.30
2023-05-09T00:53:54.815Z,15.30
2023-05-09T00:58:56.673Z,15.30
2023-05-09T01:03:59.111Z,15.20
2023-05-09T01:09:19.950Z,15.10
2023-05-09T01:14:33.489Z,14.80
2023-05-09T01:19:53.867Z,14.70
2023-05-09T01:25:07.320Z,14.80
2023-05-09T01:30:11.992Z,14.80
2023-05-09T01:35:15.929Z,14.80
2023-05-09T01:40:20.858Z,14.70
2023-05-09T01:45:24.894Z,14.50
2023-05-09T01:50:29.375Z,14.40
2023-05-09T01:55:34.288Z,14.30
2023-05-09T02:00:37.134Z,14.40
2023-05-09T02:05:39.813Z,14.50
2023-05-09T02:10:42.595Z,14.60
2023-05-09T02:15:45.194Z,14.30
2023-05-09T02:20:47.066Z,14.10
2023-05-09T02:25:49.068Z,14.10
2023-05-09T02:30:52.284Z,14.20
2023-05-09T02:35:55.322Z,14.30
2023-05-09T02:40:57.073Z,14.30
2023-05-09T02:45:59.015Z,14.30
2023-05-09T02:51:00.732Z,14.30
2023-05-09T02:56:02.474Z,14.10
2023-05-09T03:01:04.423Z,14.10
2023-05-09T03:06:06.588Z,14.00
2023-05-09T03:11:08.280Z,13.90
2023-05-09T03:16:14.278Z,13.80
2023-05-09T03:21:16.019Z,13.50
2023-05-09T03:26:17.778Z,13.60
2023-05-09T03:31:19.508Z,13.40
2023-05-09T03:36:21.386Z,13.40
2023-05-09T03:41:23.030Z,13.40
2023-05-09T03:46:24.728Z,13.50
2023-05-09T03:51:26.732Z,13.60
2023-05-09T03:56:28.391Z,13.70
2023-05-09T04:01:30.856Z,13.60
2023-05-09T04:06:33.266Z,13.40
2023-05-09T04:11:34.983Z,13.40
2023-05-09T04:16:36.724Z,13.70
2023-05-09T04:21:38.430Z,14.00
2023-05-09T04:26:40.371Z,14.00
2023-05-09T04:31:42.082Z,14.00
2023-05-09T04:36:44.150Z,14.00
2023-05-09T04:41:47.774Z,14.10
2023-05-09T04:46:50.556Z,14.20
2023-05-09T04:51:52.258Z,14.20
2023-05-09T04:57:00.208Z,14.30
2023-05-09T05:02:08.290Z,14.50
2023-05-09T05:07:09.950Z,14.50
2023-05-09T05:12:11.815Z,14.70
2023-05-09T05:17:13.548Z,15.00
2023-05-09T05:22:15.335Z,15.10
2023-05-09T05:27:17.022Z,15.10
2023-05-09T05:32:18.720Z,15.20
2023-05-09T05:37:20.632Z,15.20
2023-05-09T05:42:22.434Z,15.50
2023-05-09T05:47:24.162Z,15.80
2023-05-09T05:52:27.109Z,15.80
2023-05-09T05:57:30.220Z,15.90
2023-05-09T06:02:32.169Z,16.10
2023-05-09T06:07:33.922Z,16.30
2023-05-09T06:12:36.008Z,16.40
2023-05-09T06:17:37.765Z,16.60
2023-05-09T06:22:39.654Z,16.70
2023-05-09T06:27:42.693Z,16.80
2023-05-09T06:32:44.460Z,17.10
2023-05-09T06:37:48.427Z,17.30
2023-05-09T06:42:50.602Z,17.40
2023-05-09T06:47:52.446Z,17.60
2023-05-09T06:52:54.144Z,17.80
2023-05-09T06:57:55.840Z,18.10
2023-05-09T07:02:57.529Z,18.30
2023-05-09T07:07:59.318Z,18.30
2023-05-09T07:13:01.043Z,18.40
2023-05-09T07:18:02.825Z,18.70
2023-05-09T07:23:04.687Z,18.90
2023-05-09T07:28:06.623Z,19.00
2023-05-09T07:33:08.354Z,19.20
2023-05-09T07:38:11.049Z,19.30
2023-05-09T07:43:12.796Z,19.40
2023-05-09T07:48:14.458Z,19.50
2023-05-09T07:53:16.169Z,19.70
2023-05-09T07:58:17.848Z,19.80
2023-05-09T08:03:20.770Z,20.00
2023-05-09T08:08:23.493Z,20.10
2023-05-09T08:13:25.670Z,20.40
2023-05-09T08:18:27.471Z,20.80
2023-05-09T08:23:30.354Z,20.90
2023-05-09T08:28:32.131Z,21.00
2023-05-09T08:33:33.810Z,21.20
2023-05-09T08:38:36.414Z,21.30
2023-05-09T08:43:40.377Z,21.70
2023-05-09T08:48:44.361Z,21.90
2023-05-09T08:53:46.272Z,22.00
2023-05-09T08:58:48.101Z,22.30
2023-05-09T09:03:50.272Z,22.30
2023-05-09T09:08:54.716Z,22.50
2023-05-09T09:14:00.831Z,22.00
2023-05-09T09:19:05.059Z,21.90
2023-05-09T09:24:08.074Z,22.30
2023-05-09T09:29:10.112Z,23.00
2023-05-09T09:34:14.494Z,23.00
2023-05-09T09:39:16.479Z,23.10
2023-05-09T09:44:22.972Z,23.40
2023-05-09T09:49:26.755Z,23.40
2023-05-09T09:54:29.080Z,23.30
2023-05-09T09:59:30.830Z,23.60
2023-05-09T10:04:35.224Z,23.80
2023-05-09T10:09:40.891Z,23.70
2023-05-09T10:14:43.318Z,23.80
2023-05-09T10:19:47.612Z,23.20
2023-05-09T10:24:57.806Z,23.40
2023-05-09T10:30:10.546Z,23.30
2023-05-09T10:35:14.188Z,23.40
2023-05-09T10:40:16.159Z,23.40
2023-05-09T10:45:18.130Z,23.70
2023-05-09T10:50:21.465Z,23.50
2023-05-09T10:55:24.419Z,23.70
2023-05-09T11:00:26.148Z,24.00
2023-05-09T11:05:39.294Z,24.40
2023-05-09T11:10:43.990Z,24.20
2023-05-09T11:16:04.454Z,25.00
2023-05-09T11:21:09.545Z,24.30
2023-05-09T11:26:11.238Z,24.20
2023-05-09T11:31:17.645Z,24.30
2023-05-09T11:36:31.894Z,23.60
2023-05-09T11:41:42.302Z,24.30
2023-05-09T11:46:45.211Z,24.70
2023-05-09T11:51:46.905Z,25.10
2023-05-09T11:56:48.577Z,25.00
2023-05-09T12:01:50.304Z,25.30
2023-05-09T12:06:52.393Z,25.60
2023-05-09T12:11:54.122Z,25.50
2023-05-09T12:16:55.915Z,25.60
2023-05-09T12:22:02.420Z,25.50
2023-05-09T12:27:05.190Z,25.70
2023-05-09T12:32:06.905Z,25.60
2023-05-09T12:37:16.781Z,25.90
2023-05-09T12:42:18.504Z,25.90
2023-05-09T12:47:20.649Z,26.30
2023-05-09T12:52:22.845Z,26.30
2023-05-09T12:57:29.379Z,26.50
2023-05-09T13:02:37.448Z,26.20
2023-05-09T13:07:47.349Z,25.90
2023-05-09T13:12:49.926Z,26.00
2023-05-09T13:17:52.369Z,25.30
2023-05-09T13:22:54.193Z,24.90
2023-05-09T13:27:55.912Z,24.30
2023-05-09T13:33:00.375Z,24.20
2023-05-09T13:38:05.827Z,23.80
2023-05-09T13:43:07.571Z,23.50
2023-05-09T13:48:09.449Z,23.50
2023-05-09T13:53:11.153Z,23.30
2023-05-09T13:58:12.923Z,23.30
2023-05-09T14:03:14.627Z,23.10
2023-05-09T14:08:16.901Z,22.70
2023-05-09T14:13:18.679Z,22.50
2023-05-09T14:18:21.223Z,22.70
2023-05-09T14:23:23.209Z,22.70
2023-05-09T14:28:24.860Z,22.60
2023-05-09T14:33:27.888Z,22.10
2023-05-09T14:38:29.734Z,21.60
2023-05-09T14:43:31.652Z,21.60
2023-05-09T14:48:36.296Z,21.00
2023-05-09T14:53:41.800Z,20.30
2023-05-09T14:58:43.685Z,20.10
2023-05-09T15:03:45.391Z,20.20
2023-05-09T15:08:47.063Z,20.10
2023-05-09T15:13:48.941Z,19.90
2023-05-09T15:18:50.606Z,20.00
2023-05-09T15:23:52.254Z,19.90
2023-05-09T15:28:53.931Z,19.90
2023-05-09T15:33:55.755Z,19.90
2023-05-09T15:38:57.570Z,19.60
2023-05-09T15:43:59.450Z,18.70
2023-05-09T15:49:01.197Z,17.60
2023-05-09T15:54:02.997Z,17.00
2023-05-09T15:59:04.689Z,16.70
2023-05-09T16:04:06.439Z,16.50
2023-05-09T16:09:08.264Z,16.30
2023-05-09T16:14:11.695Z,16.30
2023-05-09T16:19:13.983Z,16.20
2023-05-09T16:24:15.690Z,15.90
2023-05-09T16:29:17.345Z,15.80
2023-05-09T16:34:19.011Z,15.80
2023-05-09T16:39:20.874Z,16.00
2023-05-09T16:44:22.557Z,16.00
2023-05-09T16:49:24.319Z,16.10
2023-05-09T16:54:26.041Z,16.10
2023-05-09T16:59:27.804Z,16.20
2023-05-09T17:04:29.540Z,16.30
2023-05-09T17:09:31.999Z,16.40
2023-05-09T17:14:33.694Z,16.50
2023-05-09T17:19:35.388Z,16.40
2023-05-09T17:24:37.145Z,16.40
2023-05-09T17:29:38.848Z,16.40
2023-05-09T17:34:40.623Z,16.40
2023-05-09T17:39:42.610Z,16.40
2023-05-09T17:44:44.647Z,16.20
2023-05-09T17:49:46.402Z,16.00
2023-05-09T17:54:48.133Z,15.70
2023-05-09T17:59:51.721Z,15.50
2023-05-09T18:04:53.888Z,15.50
2023-05-09T18:09:55.663Z,15.40
2023-05-09T18:14:57.392Z,15.30
2023-05-09T18:19:59.106Z,15.20
2023-05-09T18:25:01.156Z,15.20
2023-05-09T18:30:03.058Z,15.10
2023-05-09T18:35:05.420Z,15.10
2023-05-09T18:40:10.633Z,15.00
2023-05-09T18:45:13.058Z,15.00
2023-05-09T18:50:15.042Z,14.90
2023-05-09T18:55:19.657Z,14.80
2023-05-09T19:00:21.355Z,14.80
2023-05-09T19:05:23.012Z,14.90
2023-05-09T19:10:24.754Z,14.90
2023-05-09T19:15:26.471Z,14.80
2023-05-09T19:20:29.757Z,14.90
2023-05-09T19:25:33.799Z,14.90
2023-05-09T19:30:35.902Z,14.90
2023-05-09T19:35:40.745Z,14.90
2023-05-09T19:40:42.487Z,14.80
2023-05-09T19:45:44.209Z,14.80
2023-05-09T19:50:46.134Z,14.80
2023-05-09T19:55:47.908Z,14.70
2023-05-09T20:00:49.612Z,14.70
2023-05-09T20:05:51.295Z,14.60
2023-05-09T20:10:53.843Z,14.60
2023-05-09T20:15:55.601Z,14.50
2023-05-09T20:20:57.271Z,14.40
2023-05-09T20:25:59.115Z,14.40
2023-05-09T20:31:00.873Z,14.40
2023-05-09T20:36:02.538Z,14.40
2023-05-09T20:41:04.192Z,14.40
2023-05-09T20:46:06.451Z,14.30
2023-05-09T20:51:08.157Z,14.30
2023-05-09T20:56:09.855Z,14.30
2023-05-09T21:01:11.594Z,14.30
2023-05-09T21:06:13.486Z,14.20
2023-05-09T21:11:15.267Z,14.20
2023-05-09T21:16:16.996Z,14.20
2023-05-09T21:21:18.725Z,14.20
2023-05-09T21:26:22.779Z,14.20
2023-05-09T21:31:24.503Z,14.20
2023-05-09T21:36:26.342Z,14.20
2023-05-09T21:41:28.143Z,14.20
2023-05-09T21:46:32.888Z,14.20
2023-05-09T21:51:35.145Z,14.10
2023-05-09T21:56:36.941Z,14.20
2023-05-09T22:01:38.795Z,14.10
2023-05-09T22:06:42.462Z,14.10
2023-05-09T22:11:44.338Z,14.10
2023-05-09T22:16:46.174Z,14.10
2023-05-09T22:21:48.957Z,14.10
2023-05-09T22:26:50.844Z,14.10
2023-05-09T22:31:52.617Z,14.00
2023-05-09T22:36:55.015Z,14.00
2023-05-09T22:41:56.775Z,14.00
2023-05-09T22:46:59.081Z,14.00
2023-05-09T22:52:00.930Z,14.00
2023-05-09T22:57:02.603Z,14.00
2023-05-09T23:02:04.869Z,14.00
2023-05-09T23:07:07.442Z,14.00
2023-05-09T23:12:10.532Z,13.90
2023-05-09T23:17:12.366Z,13.90
2023-05-09T23:22:14.033Z,13.90
2023-05-09T23:27:15.743Z,13.90
2023-05-09T23:32:17.429Z,13.90
2023-05-09T23:37:19.193Z,13.90
2023-05-09T23:42:20.894Z,13.90
2023-05-09T23:47:22.575Z,13.90
2023-05-09T23:52:24.334Z,13.80
2023-05-09T23:57:26.402Z,13.80
